DLH34D EDDF-LEBB
Flight info
| Callsign | DLH34D |
|---|---|
| Flight time | N/A |
| Altitude | 34000 |
| Route | SOBRA2L/18 SOBRA Y180 DIK UN857 TOLVU/N0483F350 DCT RAPOR DCT GIMER DCT ESTOC UT300 PON UN872 GODIX/N0490F310 UN872 TERPO DCT PEXOD DCT NENEM N867 MAPAX |
| Aircraft | MD11/H-SDE1E2E3FGHIJ2J3J4J5M1RWXY/LB1D1 |
Departure
| Time | N/A |
|---|---|
| Airport | Frankfurt Main Airport (EDDF) |
Arrival
| Time | 2026-04-28 18:50 |
|---|---|
| Airport | Bilbao Airport (LEBB) |
| Time | Latitude | Longitude | Altitude | Speed | Heading |
|---|---|---|---|---|---|
| 2026-04-28 17:38 | 49.15631 | 2.56142 | 34999 ft | 482 kts | 256° |
| 2026-04-28 17:38 | 49.14111 | 2.46381 | 35005 ft | 482 kts | 256° |
| 2026-04-28 17:39 | 49.12656 | 2.36357 | 35005 ft | 482 kts | 259° |
| 2026-04-28 17:40 | 49.11210 | 2.21177 | 34998 ft | 482 kts | 262° |
| 2026-04-28 17:40 | 49.10317 | 2.11065 | 34994 ft | 482 kts | 262° |
| 2026-04-28 17:41 | 49.08917 | 2.01062 | 35002 ft | 481 kts | 250° |
| 2026-04-28 17:41 | 49.06237 | 1.91737 | 34998 ft | 482 kts | 244° |
| 2026-04-28 17:42 | 49.03300 | 1.82529 | 34997 ft | 482 kts | 244° |
| 2026-04-28 17:42 | 49.00456 | 1.73327 | 35000 ft | 482 kts | 245° |
| 2026-04-28 17:43 | 48.97649 | 1.64039 | 35001 ft | 482 kts | 245° |
| 2026-04-28 17:43 | 48.95321 | 1.56317 | 35002 ft | 482 kts | 245° |
| 2026-04-28 17:44 | 48.92058 | 1.45546 | 34997 ft | 482 kts | 245° |
| 2026-04-28 17:44 | 48.89708 | 1.37826 | 35004 ft | 482 kts | 245° |
| 2026-04-28 17:45 | 48.86879 | 1.28567 | 35000 ft | 482 kts | 245° |
| 2026-04-28 17:45 | 48.84045 | 1.19326 | 35000 ft | 482 kts | 245° |
| 2026-04-28 17:46 | 48.81218 | 1.10146 | 35000 ft | 482 kts | 245° |
| 2026-04-28 17:46 | 48.78366 | 1.00912 | 34997 ft | 482 kts | 245° |
| 2026-04-28 17:47 | 48.75490 | 0.91788 | 35001 ft | 482 kts | 242° |
| 2026-04-28 17:47 | 48.72131 | 0.83016 | 35002 ft | 482 kts | 238° |
| 2026-04-28 17:48 | 48.68610 | 0.74457 | 35000 ft | 482 kts | 238° |
| 2026-04-28 17:48 | 48.65078 | 0.65817 | 35002 ft | 482 kts | 238° |
| 2026-04-28 17:49 | 48.61592 | 0.57216 | 35001 ft | 482 kts | 238° |
| 2026-04-28 17:49 | 48.58094 | 0.48583 | 35001 ft | 482 kts | 238° |
| 2026-04-28 17:50 | 48.54578 | 0.39934 | 34997 ft | 482 kts | 238° |
| 2026-04-28 17:50 | 48.51075 | 0.31350 | 34999 ft | 482 kts | 238° |
| 2026-04-28 17:51 | 48.47553 | 0.22748 | 34997 ft | 482 kts | 238° |
| 2026-04-28 17:51 | 48.44018 | 0.14141 | 34999 ft | 482 kts | 238° |
| 2026-04-28 17:52 | 48.40483 | 0.05562 | 35004 ft | 482 kts | 238° |
| 2026-04-28 17:52 | 48.34963 | -0.07030 | 34993 ft | 482 kts | 233° |
| 2026-04-28 17:53 | 48.30960 | -0.15066 | 34997 ft | 482 kts | 233° |
| 2026-04-28 17:53 | 48.26917 | -0.23131 | 35004 ft | 482 kts | 233° |
| 2026-04-28 17:54 | 48.22885 | -0.31104 | 34997 ft | 482 kts | 232° |
| 2026-04-28 17:54 | 48.18803 | -0.39113 | 34997 ft | 482 kts | 232° |
| 2026-04-28 17:55 | 48.14755 | -0.47044 | 35002 ft | 482 kts | 232° |
| 2026-04-28 17:55 | 48.10665 | -0.55044 | 35004 ft | 482 kts | 232° |
| 2026-04-28 17:56 | 48.06605 | -0.62962 | 35000 ft | 482 kts | 232° |
| 2026-04-28 17:56 | 48.02512 | -0.70924 | 34999 ft | 482 kts | 232° |
| 2026-04-28 17:57 | 47.98437 | -0.78824 | 34997 ft | 482 kts | 232° |
| 2026-04-28 17:57 | 47.94345 | -0.86735 | 34999 ft | 482 kts | 232° |
| 2026-04-28 17:58 | 47.90236 | -0.94656 | 35002 ft | 482 kts | 232° |
| 2026-04-28 17:58 | 47.86147 | -1.02515 | 35001 ft | 482 kts | 232° |
| 2026-04-28 17:59 | 47.82028 | -1.10409 | 35004 ft | 482 kts | 232° |
| 2026-04-28 17:59 | 47.77931 | -1.18240 | 35001 ft | 482 kts | 232° |
| 2026-04-28 18:00 | 47.73780 | -1.26108 | 35003 ft | 482 kts | 231° |
| 2026-04-28 18:00 | 47.69638 | -1.33897 | 34997 ft | 482 kts | 232° |
| 2026-04-28 18:01 | 47.65486 | -1.41735 | 35004 ft | 482 kts | 232° |
| 2026-04-28 18:01 | 47.61312 | -1.49437 | 34995 ft | 482 kts | 229° |
| 2026-04-28 18:02 | 47.56860 | -1.56920 | 35002 ft | 482 kts | 228° |
| 2026-04-28 18:02 | 47.52393 | -1.64252 | 34997 ft | 482 kts | 228° |
| 2026-04-28 18:03 | 47.47907 | -1.71637 | 35002 ft | 482 kts | 228° |
| 2026-04-28 18:03 | 47.43447 | -1.78993 | 35002 ft | 482 kts | 228° |
| 2026-04-28 18:04 | 47.38973 | -1.86360 | 35004 ft | 482 kts | 228° |
| 2026-04-28 18:04 | 47.34048 | -1.93040 | 35001 ft | 481 kts | 213° |
| 2026-04-28 18:05 | 47.29080 | -1.96692 | 35001 ft | 481 kts | 200° |
| 2026-04-28 18:05 | 47.21649 | -2.00271 | 34999 ft | 482 kts | 198° |
| 2026-04-28 18:06 | 47.15338 | -2.03475 | 34998 ft | 482 kts | 200° |
| 2026-04-28 18:06 | 47.09045 | -2.06919 | 35004 ft | 482 kts | 201° |
| 2026-04-28 18:07 | 47.02753 | -2.10429 | 34999 ft | 482 kts | 201° |
| 2026-04-28 18:07 | 46.96558 | -2.13873 | 35002 ft | 482 kts | 201° |
| 2026-04-28 18:08 | 46.90301 | -2.17335 | 34998 ft | 482 kts | 201° |
| 2026-04-28 18:08 | 46.84003 | -2.20805 | 35001 ft | 482 kts | 201° |
| 2026-04-28 18:09 | 46.77720 | -2.24259 | 34995 ft | 482 kts | 201° |
| 2026-04-28 18:09 | 46.71465 | -2.27689 | 35003 ft | 482 kts | 200° |
| 2026-04-28 18:10 | 46.65170 | -2.31133 | 35003 ft | 482 kts | 200° |
| 2026-04-28 18:10 | 46.58906 | -2.34551 | 35002 ft | 482 kts | 200° |
| 2026-04-28 18:11 | 46.52649 | -2.37947 | 34998 ft | 482 kts | 200° |
| 2026-04-28 18:11 | 46.46356 | -2.41341 | 35002 ft | 482 kts | 200° |
| 2026-04-28 18:12 | 46.40048 | -2.44748 | 35005 ft | 482 kts | 200° |
| 2026-04-28 18:12 | 46.33832 | -2.48106 | 35001 ft | 482 kts | 200° |
| 2026-04-28 18:13 | 46.27537 | -2.51500 | 34998 ft | 482 kts | 200° |
| 2026-04-28 18:13 | 46.21277 | -2.54865 | 34995 ft | 482 kts | 200° |
| 2026-04-28 18:14 | 46.14979 | -2.58243 | 35002 ft | 482 kts | 200° |
| 2026-04-28 18:14 | 46.08716 | -2.61593 | 35001 ft | 482 kts | 200° |
| 2026-04-28 18:15 | 46.02412 | -2.64958 | 34997 ft | 482 kts | 200° |
| 2026-04-28 18:15 | 45.96112 | -2.68312 | 35000 ft | 482 kts | 200° |
| 2026-04-28 18:16 | 45.89848 | -2.71639 | 35001 ft | 482 kts | 200° |
| 2026-04-28 18:16 | 45.83542 | -2.74979 | 34995 ft | 482 kts | 200° |
| 2026-04-28 18:17 | 45.77279 | -2.78289 | 35002 ft | 482 kts | 200° |
| 2026-04-28 18:17 | 45.70962 | -2.81598 | 34993 ft | 482 kts | 200° |
| 2026-04-28 18:18 | 45.64667 | -2.84895 | 35002 ft | 482 kts | 200° |
| 2026-04-28 18:18 | 45.59421 | -2.87645 | 35002 ft | 482 kts | 200° |
| 2026-04-28 18:19 | 45.52141 | -2.91457 | 35001 ft | 482 kts | 200° |
| 2026-04-28 18:19 | 45.45825 | -2.94756 | 35002 ft | 482 kts | 200° |
| 2026-04-28 18:20 | 45.39544 | -2.98028 | 34995 ft | 482 kts | 200° |
| 2026-04-28 18:20 | 45.33200 | -3.01199 | 34999 ft | 482 kts | 195° |
| 2026-04-28 18:21 | 45.26618 | -3.02596 | 35004 ft | 482 kts | 184° |
| 2026-04-28 18:21 | 45.19904 | -3.03119 | 35007 ft | 482 kts | 183° |
| 2026-04-28 18:22 | 45.13190 | -3.03682 | 34999 ft | 482 kts | 184° |
| 2026-04-28 18:22 | 45.06506 | -3.04363 | 35005 ft | 482 kts | 184° |
| 2026-04-28 18:23 | 44.99865 | -3.05070 | 35020 ft | 468 kts | 188° |
| 2026-04-28 18:23 | 44.96661 | -3.05409 | 34975 ft | 455 kts | 188° |
| 2026-04-28 18:23 | 44.93522 | -3.05746 | 34957 ft | 451 kts | 188° |
| 2026-04-28 18:24 | 44.88313 | -3.06312 | 34966 ft | 450 kts | 188° |
| 2026-04-28 18:24 | 44.81101 | -3.07089 | 34953 ft | 449 kts | 188° |
| 2026-04-28 18:25 | 44.74843 | -3.07755 | 34968 ft | 449 kts | 188° |
| 2026-04-28 18:26 | 44.65515 | -3.08743 | 34964 ft | 449 kts | 188° |
| 2026-04-28 18:26 | 44.59316 | -3.09398 | 34959 ft | 449 kts | 188° |
| 2026-04-28 18:27 | 44.53087 | -3.10053 | 34623 ft | 444 kts | 187° |
| 2026-04-28 18:27 | 44.50013 | -3.10375 | 34332 ft | 442 kts | 187° |
| 2026-04-28 18:27 | 44.46943 | -3.10696 | 34019 ft | 442 kts | 187° |
| 2026-04-28 18:27 | 44.43876 | -3.11017 | 33612 ft | 441 kts | 187° |
| 2026-04-28 18:28 | 44.40801 | -3.11338 | 33203 ft | 443 kts | 187° |
| 2026-04-28 18:28 | 44.37757 | -3.11657 | 32809 ft | 445 kts | 187° |
| 2026-04-28 18:28 | 44.34652 | -3.11983 | 32415 ft | 447 kts | 187° |
| 2026-04-28 18:28 | 44.31536 | -3.12309 | 32019 ft | 449 kts | 187° |
| 2026-04-28 18:29 | 44.28406 | -3.12636 | 31634 ft | 452 kts | 187° |
| 2026-04-28 18:29 | 44.25257 | -3.12965 | 31255 ft | 454 kts | 187° |
| 2026-04-28 18:29 | 44.22102 | -3.13294 | 30879 ft | 456 kts | 187° |
| 2026-04-28 18:29 | 44.18929 | -3.13624 | 30511 ft | 458 kts | 187° |
| 2026-04-28 18:30 | 44.15786 | -3.13951 | 30154 ft | 460 kts | 187° |
| 2026-04-28 18:30 | 44.14703 | -3.14064 | 30030 ft | 460 kts | 187° |
| 2026-04-28 18:30 | 44.09373 | -3.14616 | 29322 ft | 459 kts | 187° |
| 2026-04-28 18:30 | 44.06191 | -3.14887 | 28903 ft | 457 kts | 183° |
| 2026-04-28 18:31 | 44.03042 | -3.14593 | 28496 ft | 458 kts | 175° |
| 2026-04-28 18:31 | 43.99894 | -3.13827 | 28088 ft | 457 kts | 171° |
| 2026-04-28 18:31 | 43.96821 | -3.12880 | 27698 ft | 455 kts | 170° |
| 2026-04-28 18:31 | 43.93744 | -3.11880 | 27302 ft | 453 kts | 170° |
| 2026-04-28 18:32 | 43.90678 | -3.10898 | 26911 ft | 450 kts | 170° |
| 2026-04-28 18:32 | 43.87627 | -3.09953 | 26528 ft | 447 kts | 171° |
| 2026-04-28 18:32 | 43.84586 | -3.09039 | 26150 ft | 445 kts | 171° |
| 2026-04-28 18:32 | 43.82582 | -3.08448 | 25906 ft | 443 kts | 171° |
| 2026-04-28 18:33 | 43.78601 | -3.07286 | 25412 ft | 439 kts | 171° |
| 2026-04-28 18:33 | 43.75634 | -3.06299 | 25012 ft | 439 kts | 166° |
| 2026-04-28 18:33 | 43.72808 | -3.04693 | 24614 ft | 441 kts | 153° |
| 2026-04-28 18:33 | 43.71083 | -3.03086 | 24333 ft | 443 kts | 143° |
| 2026-04-28 18:34 | 43.68990 | -3.00017 | 23941 ft | 447 kts | 128° |
| 2026-04-28 18:34 | 43.67529 | -2.96232 | 23552 ft | 450 kts | 112° |
| 2026-04-28 18:34 | 43.66760 | -2.92023 | 22861 ft | 451 kts | 101° |
| 2026-04-28 18:34 | 43.66422 | -2.87735 | 22073 ft | 447 kts | 95° |
| 2026-04-28 18:35 | 43.66171 | -2.83468 | 21295 ft | 441 kts | 98° |
| 2026-04-28 18:35 | 43.65653 | -2.79321 | 20536 ft | 433 kts | 105° |
| 2026-04-28 18:35 | 43.64820 | -2.75464 | 19617 ft | 407 kts | 111° |
| 2026-04-28 18:35 | 43.63737 | -2.71897 | 18025 ft | 406 kts | 118° |
| 2026-04-28 18:36 | 43.62404 | -2.68483 | 16300 ft | 402 kts | 122° |
| 2026-04-28 18:36 | 43.60895 | -2.65272 | 15098 ft | 388 kts | 127° |
| 2026-04-28 18:36 | 43.59310 | -2.62348 | 14138 ft | 371 kts | 130° |
| 2026-04-28 18:36 | 43.57659 | -2.59692 | 13125 ft | 358 kts | 134° |
| 2026-04-28 18:37 | 43.55938 | -2.57274 | 12099 ft | 346 kts | 138° |
| 2026-04-28 18:37 | 43.54179 | -2.55107 | 11056 ft | 338 kts | 142° |
| 2026-04-28 18:37 | 43.52337 | -2.53118 | 9958 ft | 334 kts | 145° |
| 2026-04-28 18:37 | 43.50393 | -2.51285 | 8833 ft | 343 kts | 148° |
| 2026-04-28 18:38 | 43.48341 | -2.49610 | 8161 ft | 341 kts | 152° |
| 2026-04-28 18:38 | 43.46246 | -2.48135 | 7778 ft | 335 kts | 155° |
| 2026-04-28 18:38 | 43.44145 | -2.46875 | 7414 ft | 330 kts | 159° |
| 2026-04-28 18:38 | 43.41994 | -2.45803 | 7082 ft | 326 kts | 162° |
| 2026-04-28 18:39 | 43.39805 | -2.44925 | 6974 ft | 327 kts | 166° |
| 2026-04-28 18:39 | 43.37579 | -2.44229 | 6801 ft | 330 kts | 169° |
| 2026-04-28 18:39 | 43.35315 | -2.43722 | 6560 ft | 326 kts | 173° |
| 2026-04-28 18:39 | 43.33092 | -2.43419 | 6313 ft | 315 kts | 176° |
| 2026-04-28 18:40 | 43.30944 | -2.43307 | 6052 ft | 303 kts | 179° |
| 2026-04-28 18:40 | 43.28904 | -2.43362 | 5799 ft | 292 kts | 182° |
| 2026-04-28 18:40 | 43.26894 | -2.43568 | 5531 ft | 283 kts | 186° |
| 2026-04-28 18:40 | 43.24964 | -2.43910 | 5279 ft | 275 kts | 188° |
| 2026-04-28 18:41 | 43.23119 | -2.44370 | 5034 ft | 268 kts | 191° |
| 2026-04-28 18:41 | 43.21322 | -2.44948 | 4892 ft | 264 kts | 194° |
| 2026-04-28 18:41 | 43.19550 | -2.45645 | 4854 ft | 264 kts | 197° |
| 2026-04-28 18:41 | 43.17803 | -2.46461 | 4849 ft | 265 kts | 200° |
| 2026-04-28 18:42 | 43.16090 | -2.47395 | 4851 ft | 265 kts | 203° |
| 2026-04-28 18:42 | 43.14495 | -2.48575 | 4841 ft | 265 kts | 220° |
| 2026-04-28 18:42 | 43.13397 | -2.50574 | 4845 ft | 264 kts | 248° |
| 2026-04-28 18:42 | 43.13112 | -2.53039 | 4846 ft | 265 kts | 276° |
| 2026-04-28 18:43 | 43.13694 | -2.55428 | 4717 ft | 269 kts | 302° |
| 2026-04-28 18:43 | 43.14876 | -2.57304 | 4444 ft | 249 kts | 316° |
| 2026-04-28 18:43 | 43.16030 | -2.58798 | 4284 ft | 212 kts | 317° |
| 2026-04-28 18:43 | 43.17012 | -2.60136 | 4130 ft | 186 kts | 314° |
| 2026-04-28 18:44 | 43.17821 | -2.61388 | 3841 ft | 173 kts | 310° |
| 2026-04-28 18:44 | 43.19258 | -2.63956 | 2880 ft | 165 kts | 306° |
| 2026-04-28 18:44 | 43.19900 | -2.65231 | 2454 ft | 163 kts | 305° |
| 2026-04-28 18:45 | 43.20524 | -2.66533 | 2095 ft | 161 kts | 303° |
| 2026-04-28 18:45 | 43.21113 | -2.67840 | 2061 ft | 161 kts | 302° |
| 2026-04-28 18:45 | 43.21683 | -2.69152 | 2022 ft | 162 kts | 302° |
| 2026-04-28 18:45 | 43.22287 | -2.70459 | 2060 ft | 162 kts | 304° |
| 2026-04-28 18:46 | 43.22888 | -2.71772 | 2040 ft | 162 kts | 302° |
| 2026-04-28 18:46 | 43.23460 | -2.73105 | 2039 ft | 162 kts | 301° |
| 2026-04-28 18:46 | 43.24004 | -2.74440 | 2045 ft | 162 kts | 298° |
| 2026-04-28 18:46 | 43.24513 | -2.75826 | 1997 ft | 163 kts | 298° |
| 2026-04-28 18:47 | 43.25001 | -2.77229 | 1775 ft | 164 kts | 296° |
| 2026-04-28 18:47 | 43.25474 | -2.78577 | 1602 ft | 146 kts | 298° |
| 2026-04-28 18:47 | 43.25955 | -2.79844 | 1502 ft | 149 kts | 298° |
| 2026-04-28 18:47 | 43.26435 | -2.81119 | 1437 ft | 159 kts | 298° |
| 2026-04-28 18:48 | 43.26924 | -2.82475 | 1305 ft | 160 kts | 296° |
| 2026-04-28 18:48 | 43.27428 | -2.83866 | 1142 ft | 163 kts | 297° |
| 2026-04-28 18:48 | 43.27925 | -2.85153 | 954 ft | 150 kts | 297° |
| 2026-04-28 18:48 | 43.28080 | -2.85566 | 851 ft | 154 kts | 297° |
| 2026-04-28 18:49 | 43.28571 | -2.86902 | 667 ft | 159 kts | 297° |
| 2026-04-28 18:49 | 43.28902 | -2.87806 | 556 ft | 160 kts | 297° |
| 2026-04-28 18:49 | 43.29552 | -2.89564 | 250 ft | 148 kts | 297° |
| 2026-04-28 18:49 | 43.30007 | -2.90779 | 121 ft | 126 kts | 296° |
| 2026-04-28 18:50 | 43.30329 | -2.91657 | 131 ft | 74 kts | 297° |
| 2026-04-28 18:50 | 43.30482 | -2.91938 | 122 ft | 17 kts | 322° |
| 2026-04-28 18:50 | 43.30585 | -2.92029 | 129 ft | 15 kts | 341° |
| 2026-04-28 18:50 | 43.30622 | -2.92019 | 128 ft | 2 kts | 44° |
| 2026-04-28 18:51 | 43.30622 | -2.91963 | 127 ft | 12 kts | 106° |
| 2026-04-28 18:51 | 43.30565 | -2.91793 | 127 ft | 26 kts | 117° |
| 2026-04-28 18:51 | 43.30470 | -2.91531 | 126 ft | 35 kts | 116° |
| 2026-04-28 18:51 | 43.30351 | -2.91206 | 126 ft | 31 kts | 117° |
| 2026-04-28 18:52 | 43.30335 | -2.91028 | 129 ft | 15 kts | 42° |
| 2026-04-28 18:52 | 43.30402 | -2.90961 | 139 ft | 7 kts | 44° |
| 2026-04-28 18:52 | 43.30409 | -2.90870 | 139 ft | 19 kts | 92° |
| 2026-04-28 18:52 | 43.30358 | -2.90663 | 139 ft | 26 kts | 117° |
| 2026-04-28 18:53 | 43.30270 | -2.90551 | 134 ft | 20 kts | 152° |
| 2026-04-28 18:53 | 43.30144 | -2.90417 | 127 ft | 24 kts | 115° |
| 2026-04-28 18:53 | 43.30185 | -2.90245 | 133 ft | 23 kts | 58° |
| 2026-04-28 18:53 | 43.30252 | -2.90169 | 153 ft | 6 kts | 1° |
| 2026-04-28 18:54 | 43.30324 | -2.90221 | 145 ft | 6 kts | 301° |
| 2026-04-28 18:54 | 43.30318 | -2.90258 | 144 ft | 8 kts | 244° |
| 2026-04-28 18:54 | 43.30312 | -2.90274 | 144 ft | 0 kts | 241° |